createdAt,value
2018-09-05T00:03:30.129Z,20.00
2018-09-05T00:05:57.896Z,19.80
2018-09-05T00:08:32.237Z,19.80
2018-09-05T00:10:59.924Z,19.90
2018-09-05T00:13:27.613Z,19.90
2018-09-05T00:15:55.698Z,19.80
2018-09-05T00:18:23.408Z,19.80
2018-09-05T00:20:51.105Z,19.80
2018-09-05T00:23:18.859Z,19.80
2018-09-05T00:25:46.538Z,19.70
2018-09-05T00:28:14.261Z,19.80
2018-09-05T00:33:16.223Z,19.50
2018-09-05T00:35:44.035Z,19.40
2018-09-05T00:38:18.760Z,19.30
2018-09-05T00:40:46.474Z,19.30
2018-09-05T00:43:14.219Z,19.20
2018-09-05T00:45:41.918Z,19.20
2018-09-05T00:48:09.611Z,19.20
2018-09-05T00:50:37.305Z,19.20
2018-09-05T00:53:05.045Z,19.20
2018-09-05T00:55:32.724Z,19.10
2018-09-05T00:58:00.464Z,19.00
2018-09-05T01:00:35.208Z,19.00
2018-09-05T01:03:09.683Z,19.10
2018-09-05T01:05:37.499Z,19.00
2018-09-05T01:08:11.558Z,19.00
2018-09-05T01:10:39.269Z,18.90
2018-09-05T01:13:06.949Z,18.80
2018-09-05T01:20:36.045Z,18.80
2018-09-05T01:23:10.356Z,18.70
2018-09-05T01:28:19.653Z,18.60
2018-09-05T01:30:54.147Z,18.60
2018-09-05T01:33:21.813Z,18.60
2018-09-05T01:35:54.022Z,18.50
2018-09-05T01:38:21.745Z,18.50
2018-09-05T01:40:49.773Z,18.40
2018-09-05T01:43:24.084Z,18.50
2018-09-05T01:45:51.832Z,18.40
2018-09-05T01:48:26.364Z,18.50
2018-09-05T01:50:54.428Z,18.50
2018-09-05T01:53:22.083Z,18.50
2018-09-05T01:55:49.805Z,18.50
2018-09-05T01:58:24.252Z,18.40
2018-09-05T02:00:52.000Z,18.40
2018-09-05T02:03:19.754Z,18.30
2018-09-05T02:05:54.005Z,18.30
2018-09-05T02:08:28.509Z,18.20
2018-09-05T02:10:56.133Z,18.20
2018-09-05T02:13:23.900Z,18.30
2018-09-05T02:15:51.553Z,18.20
2018-09-05T02:20:54.120Z,18.20
2018-09-05T02:23:22.343Z,18.20
2018-09-05T02:25:50.554Z,18.20
2018-09-05T02:28:24.584Z,18.20
2018-09-05T02:30:52.235Z,18.20
2018-09-05T02:33:19.996Z,18.20
2018-09-05T02:35:54.135Z,18.20
2018-09-05T02:38:21.826Z,18.20
2018-09-05T02:40:49.571Z,18.20
2018-09-05T02:43:29.310Z,18.20
2018-09-05T02:46:03.388Z,18.10
2018-09-05T02:48:31.254Z,18.10
2018-09-05T02:50:59.158Z,18.10
2018-09-05T02:53:26.920Z,18.20
2018-09-05T02:56:00.507Z,18.20
2018-09-05T03:05:58.225Z,18.10
2018-09-05T03:08:32.338Z,18.10
2018-09-05T03:11:06.829Z,18.10
2018-09-05T03:13:34.585Z,18.20
2018-09-05T03:16:02.576Z,18.10
2018-09-05T03:18:36.895Z,18.10
2018-09-05T03:21:04.961Z,18.10
2018-09-05T03:23:32.737Z,18.20
2018-09-05T03:26:07.474Z,18.10
2018-09-05T03:28:41.928Z,18.20
2018-09-05T03:31:16.394Z,18.20
2018-09-05T03:33:50.787Z,18.20
2018-09-05T03:36:25.418Z,18.30
2018-09-05T03:38:59.855Z,18.30
2018-09-05T03:41:34.293Z,18.30
2018-09-05T03:44:08.967Z,18.20
2018-09-05T03:46:43.456Z,18.30
2018-09-05T03:49:11.147Z,18.30
2018-09-05T03:51:38.954Z,18.30
2018-09-05T03:54:06.865Z,18.30
2018-09-05T03:56:41.292Z,18.40
2018-09-05T03:59:15.760Z,18.30
2018-09-05T04:01:50.264Z,18.40
2018-09-05T04:04:24.861Z,18.30
2018-09-05T04:06:59.336Z,18.30
2018-09-05T04:09:33.851Z,18.30
2018-09-05T04:12:08.431Z,18.20
2018-09-05T04:14:42.929Z,18.30
2018-09-05T04:19:38.196Z,18.30
2018-09-05T04:22:12.726Z,18.40
2018-09-05T04:24:47.239Z,18.30
2018-09-05T04:29:56.297Z,18.20
2018-09-05T04:32:30.811Z,18.20
2018-09-05T04:35:04.748Z,18.20
2018-09-05T04:37:39.076Z,18.20
2018-09-05T04:40:13.751Z,18.20
2018-09-05T04:42:48.181Z,18.20
2018-09-05T04:45:22.764Z,18.20
2018-09-05T04:47:57.267Z,18.20
2018-09-05T04:50:31.740Z,18.20
2018-09-05T04:54:03.484Z,18.30
2018-09-05T04:56:31.241Z,18.30
2018-09-05T04:58:58.862Z,18.30
2018-09-05T05:01:26.551Z,18.30
2018-09-05T05:03:54.224Z,18.30
2018-09-05T05:06:21.880Z,18.30
2018-09-05T05:08:49.573Z,18.30
2018-09-05T05:11:17.262Z,18.40
2018-09-05T05:13:45.110Z,18.40
2018-09-05T05:16:12.752Z,18.40
2018-09-05T05:18:40.393Z,18.40
2018-09-05T05:21:08.178Z,18.50
2018-09-05T05:23:35.845Z,18.60
2018-09-05T05:26:03.495Z,18.50
2018-09-05T05:30:58.803Z,18.60
2018-09-05T05:35:54.072Z,18.70
2018-09-05T05:38:21.701Z,18.80
2018-09-05T05:40:49.649Z,18.80
2018-09-05T05:43:17.369Z,18.80
2018-09-05T05:45:45.056Z,18.80
2018-09-05T05:50:40.425Z,18.90
2018-09-05T05:53:08.092Z,19.00
2018-09-05T05:55:35.915Z,19.10
2018-09-05T05:58:03.891Z,19.10
2018-09-05T06:02:59.071Z,19.20
2018-09-05T06:05:26.699Z,19.20
2018-09-05T06:10:25.881Z,19.30
2018-09-05T06:12:54.791Z,19.40
2018-09-05T06:15:22.623Z,19.50
2018-09-05T06:17:50.321Z,19.50
2018-09-05T06:22:45.604Z,19.80
2018-09-05T06:25:13.244Z,19.80
2018-09-05T06:27:41.040Z,19.80
2018-09-05T06:30:08.701Z,19.90
2018-09-05T06:32:36.452Z,19.90
2018-09-05T06:35:04.223Z,19.70
2018-09-05T06:37:31.971Z,20.90
2018-09-05T06:39:59.599Z,19.80
2018-09-05T06:42:27.280Z,19.90
2018-09-05T06:44:54.948Z,19.80
2018-09-05T06:47:22.572Z,19.90
2018-09-05T06:49:50.276Z,19.90
2018-09-05T06:52:17.952Z,19.90
2018-09-05T06:54:45.720Z,20.00
2018-09-05T06:57:13.488Z,20.10
2018-09-05T06:59:41.144Z,20.20
2018-09-05T07:02:08.819Z,20.30
2018-09-05T07:04:36.569Z,20.40
2018-09-05T07:07:04.337Z,20.40
2018-09-05T07:09:31.921Z,20.40
2018-09-05T07:12:00.215Z,20.40
2018-09-05T07:14:27.845Z,20.50
2018-09-05T07:16:55.541Z,20.60
2018-09-05T07:19:23.331Z,20.70
2018-09-05T07:21:51.063Z,20.60
2018-09-05T07:24:18.732Z,20.70
2018-09-05T07:26:46.378Z,20.80
2018-09-05T07:29:15.502Z,20.90
2018-09-05T07:31:43.228Z,20.80
2018-09-05T07:34:10.996Z,21.00
2018-09-05T07:36:38.640Z,21.10
2018-09-05T07:39:08.072Z,21.10
2018-09-05T07:41:35.809Z,21.10
2018-09-05T07:44:03.837Z,21.20
2018-09-05T07:46:31.507Z,21.30
2018-09-05T07:48:59.204Z,21.40
2018-09-05T07:53:54.784Z,21.50
2018-09-05T07:56:22.428Z,21.60
2018-09-05T07:58:50.037Z,21.70
2018-09-05T08:01:17.706Z,21.70
2018-09-05T08:03:45.417Z,21.80
2018-09-05T08:06:13.080Z,21.90
2018-09-05T08:11:08.408Z,22.10
2018-09-05T08:13:36.171Z,22.30
2018-09-05T08:16:03.904Z,22.30
2018-09-05T08:18:31.576Z,22.30
2018-09-05T08:20:59.324Z,22.30
2018-09-05T08:23:27.086Z,22.50
2018-09-05T08:25:54.691Z,22.60
2018-09-05T08:28:22.468Z,22.70
2018-09-05T08:30:50.268Z,22.90
2018-09-05T08:33:18.274Z,22.90
2018-09-05T08:35:46.262Z,22.90
2018-09-05T08:38:13.924Z,23.00
2018-09-05T08:40:41.686Z,23.10
2018-09-05T08:43:09.444Z,23.20
2018-09-05T08:45:37.418Z,23.30
2018-09-05T08:48:05.051Z,23.50
2018-09-05T08:50:32.720Z,23.60
2018-09-05T08:53:00.602Z,23.70
2018-09-05T08:55:28.477Z,24.00
2018-09-05T08:57:56.117Z,23.90
2018-09-05T09:02:51.495Z,24.10
2018-09-05T09:05:19.233Z,24.10
2018-09-05T09:07:47.020Z,24.20
2018-09-05T09:12:42.366Z,24.50
2018-09-05T09:17:38.210Z,24.80
2018-09-05T09:20:06.013Z,24.90
2018-09-05T09:22:33.735Z,25.00
2018-09-05T09:25:01.602Z,25.10
2018-09-05T09:27:30.505Z,25.20
2018-09-05T09:29:58.237Z,25.20
2018-09-05T09:32:25.981Z,25.30
2018-09-05T09:34:53.659Z,25.30
2018-09-05T09:37:21.451Z,25.30
2018-09-05T09:42:17.903Z,25.40
2018-09-05T09:44:45.544Z,25.50
2018-09-05T09:47:13.218Z,25.70
2018-09-05T09:49:40.839Z,25.60
2018-09-05T09:52:14.201Z,25.50
2018-09-05T09:54:41.875Z,25.50
2018-09-05T09:57:09.492Z,25.60
2018-09-05T09:59:37.200Z,25.60
2018-09-05T10:02:10.549Z,25.70
2018-09-05T10:05:41.112Z,25.60
2018-09-05T10:08:10.922Z,26.00
2018-09-05T10:10:44.237Z,26.20
2018-09-05T10:13:17.219Z,26.30
2018-09-05T10:18:23.741Z,26.60
2018-09-05T10:20:51.489Z,26.50
2018-09-05T10:23:19.262Z,26.50
2018-09-05T10:25:46.964Z,26.70
2018-09-05T10:28:14.615Z,26.60
2018-09-05T10:30:42.271Z,26.70
2018-09-05T10:33:09.900Z,26.80
2018-09-05T10:35:37.559Z,26.90
2018-09-05T10:38:05.212Z,27.00
2018-09-05T10:40:32.880Z,27.20
2018-09-05T10:50:23.929Z,27.60
2018-09-05T10:52:51.649Z,27.40
2018-09-05T10:55:19.300Z,27.30
2018-09-05T10:57:47.005Z,27.30
2018-09-05T11:00:14.742Z,27.40
2018-09-05T11:02:42.417Z,27.60
2018-09-05T11:05:10.062Z,27.70
2018-09-05T11:07:37.724Z,27.70
2018-09-05T11:10:05.406Z,27.90
2018-09-05T11:12:33.085Z,27.80
2018-09-05T11:15:00.719Z,27.90
2018-09-05T11:17:28.353Z,28.00
2018-09-05T11:19:55.996Z,28.10
2018-09-05T11:22:23.673Z,28.20
2018-09-05T11:24:51.380Z,28.30
2018-09-05T11:27:19.005Z,28.20
2018-09-05T11:29:46.727Z,28.30
2018-09-05T11:37:09.475Z,28.40
2018-09-05T11:39:37.164Z,28.40
2018-09-05T11:42:04.806Z,28.40
2018-09-05T11:44:32.681Z,28.40
2018-09-05T11:47:00.375Z,28.60
2018-09-05T11:49:28.674Z,28.60
2018-09-05T11:51:56.989Z,28.70
2018-09-05T11:54:24.689Z,28.70
2018-09-05T11:56:52.460Z,28.90
2018-09-05T11:59:20.166Z,29.00
2018-09-05T12:01:47.870Z,29.00
2018-09-05T12:04:15.532Z,28.90
2018-09-05T12:06:43.262Z,28.90
2018-09-05T12:09:11.851Z,29.00
2018-09-05T12:11:39.682Z,28.90
2018-09-05T12:14:08.092Z,28.90
2018-09-05T12:19:04.752Z,28.90
2018-09-05T12:21:32.377Z,28.90
2018-09-05T12:24:00.045Z,29.00
2018-09-05T12:26:27.735Z,28.80
2018-09-05T12:28:55.444Z,28.90
2018-09-05T12:31:23.113Z,28.80
2018-09-05T12:33:50.772Z,28.70
2018-09-05T12:36:19.572Z,28.70
2018-09-05T12:38:47.258Z,28.80
2018-09-05T12:41:14.886Z,29.00
2018-09-05T12:43:42.644Z,28.90
2018-09-05T12:46:10.267Z,29.00
2018-09-05T12:48:38.490Z,29.00
2018-09-05T12:51:06.180Z,29.00
2018-09-05T12:53:34.020Z,29.00
2018-09-05T12:56:01.700Z,29.10
2018-09-05T12:58:29.388Z,29.10
2018-09-05T13:00:57.141Z,29.10
2018-09-05T13:03:24.770Z,29.10
2018-09-05T13:05:52.472Z,29.20
2018-09-05T13:08:20.192Z,29.10
2018-09-05T13:10:47.884Z,29.00
2018-09-05T13:13:15.911Z,29.10
2018-09-05T13:15:43.716Z,29.10
2018-09-05T13:18:11.410Z,29.10
2018-09-05T13:20:39.076Z,29.20
2018-09-05T13:25:34.403Z,29.40
2018-09-05T13:28:02.044Z,29.80
2018-09-05T13:35:25.181Z,32.10
2018-09-05T13:40:20.835Z,33.30
2018-09-05T13:42:48.487Z,33.50
2018-09-05T13:45:16.335Z,34.20
2018-09-05T13:47:44.060Z,34.50
2018-09-05T13:50:11.815Z,34.70
2018-09-05T13:52:39.483Z,34.70
2018-09-05T13:55:07.485Z,34.90
2018-09-05T13:57:35.208Z,35.20
2018-09-05T14:00:03.077Z,35.50
2018-09-05T14:02:30.769Z,35.60
2018-09-05T14:04:58.441Z,36.10
2018-09-05T14:07:26.516Z,36.20
2018-09-05T14:09:54.207Z,36.30
2018-09-05T14:12:21.849Z,36.20
2018-09-05T14:14:49.495Z,36.00
2018-09-05T14:17:17.217Z,35.90
2018-09-05T14:19:44.932Z,35.70
2018-09-05T14:22:12.701Z,35.60
2018-09-05T14:24:40.473Z,35.70
2018-09-05T14:27:08.143Z,35.90
2018-09-05T14:29:35.820Z,35.80
2018-09-05T14:32:03.479Z,36.10
2018-09-05T14:34:31.153Z,36.60
2018-09-05T14:36:58.785Z,36.60
2018-09-05T14:39:26.421Z,36.80
2018-09-05T14:41:54.087Z,37.40
2018-09-05T14:44:21.720Z,37.60
2018-09-05T14:46:49.357Z,37.50
2018-09-05T14:49:17.028Z,37.20
2018-09-05T14:51:44.689Z,36.70
2018-09-05T14:54:12.412Z,35.70
2018-09-05T14:56:40.149Z,34.80
2018-09-05T14:59:07.808Z,33.90
2018-09-05T15:01:35.480Z,33.70
2018-09-05T15:04:03.236Z,33.30
2018-09-05T15:06:30.980Z,32.90
2018-09-05T15:11:26.108Z,32.70
2018-09-05T15:21:16.453Z,32.40
2018-09-05T15:23:45.097Z,32.20
2018-09-05T15:31:08.064Z,31.70
2018-09-05T15:33:35.737Z,31.30
2018-09-05T15:36:03.452Z,31.60
2018-09-05T15:38:31.173Z,32.20
2018-09-05T15:40:59.115Z,33.00
2018-09-05T15:45:54.339Z,34.40
2018-09-05T15:48:22.071Z,35.10
2018-09-05T15:53:17.420Z,35.30
2018-09-05T15:55:45.177Z,35.00
2018-09-05T15:58:12.913Z,34.50
2018-09-05T16:00:40.599Z,34.60
2018-09-05T16:03:08.217Z,34.60
2018-09-05T16:05:35.856Z,34.40
2018-09-05T16:10:31.137Z,35.00
2018-09-05T16:12:58.858Z,35.50
2018-09-05T16:15:26.592Z,36.00
2018-09-05T16:20:21.792Z,35.70
2018-09-05T16:22:49.465Z,35.40
2018-09-05T16:27:44.739Z,34.30
2018-09-05T16:30:12.537Z,33.80
2018-09-05T16:32:40.273Z,33.60
2018-09-05T16:35:08.045Z,33.20
2018-09-05T16:37:35.717Z,32.60
2018-09-05T16:40:03.831Z,31.80
2018-09-05T16:42:31.468Z,31.10
2018-09-05T16:45:00.235Z,30.70
2018-09-05T16:47:28.562Z,30.20
2018-09-05T16:52:28.334Z,29.30
2018-09-05T16:54:57.003Z,29.00
2018-09-05T16:59:53.242Z,28.70
2018-09-05T17:02:21.627Z,28.50
2018-09-05T17:04:49.972Z,28.30
2018-09-05T17:07:18.449Z,28.20
2018-09-05T17:09:46.723Z,28.00
2018-09-05T17:12:14.428Z,27.80
2018-09-05T17:14:42.133Z,27.60
2018-09-05T17:17:10.018Z,27.30
2018-09-05T17:19:37.772Z,27.20
2018-09-05T17:22:05.517Z,27.10
2018-09-05T17:24:33.257Z,27.00
2018-09-05T17:27:00.894Z,26.90
2018-09-05T17:29:28.594Z,26.80
2018-09-05T17:31:56.251Z,26.60
2018-09-05T17:34:23.995Z,26.60
2018-09-05T17:39:20.378Z,26.40
2018-09-05T17:41:48.124Z,26.30
2018-09-05T17:44:15.777Z,26.20
2018-09-05T17:46:43.408Z,26.20
2018-09-05T17:51:38.612Z,26.00
2018-09-05T17:54:06.371Z,26.00
2018-09-05T17:56:34.049Z,25.90
2018-09-05T17:59:02.472Z,25.80
2018-09-05T18:01:30.398Z,25.70
2018-09-05T18:03:58.045Z,25.70
2018-09-05T18:06:25.817Z,25.60
2018-09-05T18:11:21.253Z,25.50
2018-09-05T18:26:07.501Z,25.20
2018-09-05T18:28:35.359Z,25.20
2018-09-05T18:31:03.325Z,25.20
2018-09-05T18:33:30.940Z,24.70
2018-09-05T18:35:58.704Z,25.00
2018-09-05T18:38:26.364Z,25.00
2018-09-05T18:40:54.044Z,24.90
2018-09-05T18:43:21.957Z,24.90
2018-09-05T18:45:49.711Z,24.80
2018-09-05T18:48:17.380Z,24.80
2018-09-05T18:50:45.500Z,24.70
2018-09-05T18:53:13.621Z,24.70
2018-09-05T18:55:42.864Z,24.60
2018-09-05T18:58:10.647Z,24.50
2018-09-05T19:00:38.671Z,24.50
2018-09-05T19:03:07.295Z,24.40
2018-09-05T19:05:35.237Z,24.40
2018-09-05T19:10:30.529Z,24.20
2018-09-05T19:12:58.208Z,24.20
2018-09-05T19:15:26.180Z,24.10
2018-09-05T19:17:53.880Z,24.00
2018-09-05T19:20:21.695Z,24.00
2018-09-05T19:22:49.458Z,24.00
2018-09-05T19:25:17.148Z,23.90
2018-09-05T19:27:44.823Z,23.80
2018-09-05T19:30:12.565Z,23.80
2018-09-05T19:32:40.253Z,23.70
2018-09-05T19:35:07.936Z,23.70
2018-09-05T19:37:36.505Z,23.70
2018-09-05T19:40:04.412Z,23.60
2018-09-05T19:42:32.158Z,23.60
2018-09-05T19:44:59.807Z,23.40
2018-09-05T19:47:27.568Z,23.50
2018-09-05T19:57:18.082Z,23.40
2018-09-05T19:59:45.880Z,23.30
2018-09-05T20:02:13.569Z,23.30
2018-09-05T20:04:41.486Z,23.30
2018-09-05T20:07:09.371Z,23.20
2018-09-05T20:09:37.049Z,23.20
2018-09-05T20:12:04.718Z,23.10
2018-09-05T20:14:32.837Z,23.10
2018-09-05T20:19:28.118Z,23.00
2018-09-05T20:21:55.782Z,23.00
2018-09-05T20:24:23.442Z,22.90
2018-09-05T20:34:14.381Z,22.70
2018-09-05T20:36:42.080Z,22.70
2018-09-05T20:39:11.013Z,22.70
2018-09-05T20:49:01.548Z,22.60
2018-09-05T20:51:29.272Z,22.60
2018-09-05T20:53:56.898Z,22.60
2018-09-05T20:56:24.627Z,22.60
2018-09-05T21:01:20.001Z,22.60
2018-09-05T21:03:47.776Z,22.50
2018-09-05T21:06:15.441Z,22.50
2018-09-05T21:11:10.671Z,22.50
2018-09-05T21:13:38.367Z,22.50
2018-09-05T21:16:06.233Z,22.50
2018-09-05T21:18:33.932Z,22.50
2018-09-05T21:25:58.528Z,22.50
2018-09-05T21:30:54.084Z,22.50
2018-09-05T21:33:21.762Z,22.50
2018-09-05T21:35:49.376Z,22.40
2018-09-05T21:38:17.052Z,22.40
2018-09-05T21:40:44.714Z,22.40
2018-09-05T21:43:12.366Z,22.40
2018-09-05T21:45:40.045Z,22.40
2018-09-05T21:48:07.757Z,22.40
2018-09-05T21:50:35.381Z,22.50
2018-09-05T21:53:03.514Z,22.50
2018-09-05T21:55:31.181Z,22.40
2018-09-05T21:57:58.820Z,22.40
2018-09-05T22:00:26.524Z,22.50
2018-09-05T22:07:49.680Z,22.50
2018-09-05T22:10:17.353Z,22.50
2018-09-05T22:12:44.980Z,22.50
2018-09-05T22:15:12.842Z,22.50
2018-09-05T22:17:40.509Z,22.40
2018-09-05T22:20:08.493Z,22.40
2018-09-05T22:25:03.875Z,22.40
2018-09-05T22:29:59.100Z,22.40
2018-09-05T22:32:26.793Z,22.40
2018-09-05T22:34:54.458Z,22.40
2018-09-05T22:37:22.863Z,22.40
2018-09-05T22:39:50.630Z,22.40
2018-09-05T22:42:18.269Z,22.40
2018-09-05T22:44:57.527Z,22.40
2018-09-05T22:47:36.599Z,22.40
2018-09-05T22:50:32.184Z,22.40
2018-09-05T22:55:23.798Z,22.30
2018-09-05T23:04:47.189Z,22.30
2018-09-05T23:07:26.246Z,22.30
2018-09-05T23:10:05.158Z,22.30
2018-09-05T23:15:17.258Z,22.20
2018-09-05T23:22:01.093Z,22.30
2018-09-05T23:24:28.756Z,22.30
2018-09-05T23:26:56.378Z,22.30
2018-09-05T23:29:24.053Z,22.20
2018-09-05T23:31:51.676Z,22.20
2018-09-05T23:34:19.324Z,22.20
2018-09-05T23:36:46.991Z,22.20
2018-09-05T23:39:14.678Z,22.20
2018-09-05T23:41:42.305Z,22.20
2018-09-05T23:44:09.958Z,22.20
2018-09-05T23:46:37.644Z,22.20
2018-09-05T23:49:05.466Z,22.20
2018-09-05T23:51:33.117Z,22.20
2018-09-05T23:56:28.426Z,22.10
2018-09-05T23:58:56.137Z,22.20
